Time;durP1;ratioP1;P1;durP2;ratioP2;P2;SDS_P1;SDS_P2;PMS_P1;PMS_P2;Temp;Humidity;BMP_temperature;BMP_pressure;BME280_temperature;BME280_humidity;BME280_pressure;Samples;Min_cycle;Max_cycle;Signal;HPM_P1;HPM_P2
2023/04/16 00:01:11;;;;;;;30.30;20.08;;;6.80;99.90;;;6.12;100.00;97119.56;5023406;28;20036;-40
2023/04/16 00:03:36;;;;;;;35.72;21.15;;;6.80;99.90;;;6.12;100.00;97122.19;5027821;28;20487;-41
2023/04/16 00:06:02;;;;;;;31.42;21.13;;;6.80;99.90;;;6.11;100.00;97118.69;5033703;28;20025;-42
2023/04/16 00:08:28;;;;;;;30.02;20.02;;;6.80;99.90;;;6.13;100.00;97117.81;5035613;28;20071;-40
2023/04/16 00:10:54;;;;;;;30.65;19.48;;;6.80;99.90;;;6.10;100.00;97118.72;5034787;28;20186;-40
2023/04/16 00:13:20;;;;;;;27.00;19.13;;;6.80;99.90;;;6.09;100.00;97111.78;5031187;28;20180;-42
2023/04/16 00:15:45;;;;;;;30.75;18.80;;;6.80;99.90;;;6.13;100.00;97121.28;5034248;28;20052;-41
2023/04/16 00:18:11;;;;;;;31.42;20.10;;;6.80;99.90;;;6.10;100.00;97121.34;5036556;28;20041;-41
2023/04/16 00:20:37;;;;;;;30.75;19.25;;;6.80;99.90;;;6.14;100.00;97122.13;5036018;28;20040;-41
2023/04/16 00:23:02;;;;;;;32.20;19.15;;;6.80;99.90;;;6.13;100.00;97120.41;5035984;28;20024;-41
2023/04/16 00:25:28;;;;;;;56.28;22.63;;;6.80;99.90;;;6.11;100.00;97121.31;5036671;28;20028;-40
2023/04/16 00:27:54;;;;;;;33.08;20.40;;;6.80;99.90;;;6.11;100.00;97123.91;5037507;28;20389;-41
2023/04/16 00:30:20;;;;;;;28.80;19.75;;;6.80;99.90;;;6.05;100.00;97115.38;5032053;28;20048;-40
2023/04/16 00:32:45;;;;;;;29.92;19.73;;;6.70;99.90;;;6.08;100.00;97125.75;5029291;28;20393;-42
2023/04/16 00:35:11;;;;;;;28.02;19.60;;;6.70;99.90;;;6.08;100.00;97128.38;5027529;28;20052;-43
2023/04/16 00:37:37;;;;;;;32.10;19.25;;;6.70;99.90;;;6.07;100.00;97129.28;5034931;28;20402;-41
2023/04/16 00:40:03;;;;;;;29.65;20.13;;;6.70;99.90;;;6.03;100.00;97117.13;5036641;28;20036;-41
2023/04/16 00:42:28;;;;;;;31.05;20.00;;;6.80;99.90;;;6.07;100.00;97118.81;5035769;28;20566;-40
2023/04/16 00:44:54;;;;;;;90.78;23.80;;;6.70;99.90;;;6.09;100.00;97135.34;5032414;28;20036;-42
2023/04/16 00:47:20;;;;;;;70.10;21.42;;;6.70;99.90;;;6.01;100.00;97117.19;5033170;28;21371;-41
2023/04/16 00:49:46;;;;;;;47.33;20.35;;;6.80;99.90;;;6.06;100.00;97128.41;5034095;28;20428;-41
2023/04/16 00:52:12;;;;;;;87.20;22.92;;;6.70;99.90;;;6.08;100.00;97120.50;5033506;28;20120;-42
2023/04/16 00:54:38;;;;;;;31.02;20.02;;;6.80;99.90;;;6.09;100.00;97130.09;5034710;28;20021;-42
2023/04/16 00:57:05;;;;;;;34.03;19.65;;;6.70;99.90;;;6.10;100.00;97129.19;5035305;28;20033;-42
2023/04/16 00:59:31;;;;;;;33.65;20.05;;;6.80;99.90;;;6.08;100.00;97129.25;5036205;28;20049;-42
2023/04/16 01:01:57;;;;;;;32.00;20.02;;;6.80;99.90;;;6.10;100.00;97132.69;5032509;28;20080;-42
2023/04/16 01:04:23;;;;;;;37.00;19.73;;;6.70;99.90;;;6.09;100.00;97130.09;5028122;28;20112;-42
2023/04/16 01:06:49;;;;;;;33.38;19.95;;;6.80;99.90;;;6.07;100.00;97126.66;5023297;28;20392;-42
2023/04/16 01:09:16;;;;;;;32.20;20.67;;;6.70;99.90;;;6.06;100.00;97136.25;5030052;28;20041;-42
2023/04/16 01:11:41;;;;;;;30.63;19.17;;;6.70;99.90;;;6.00;100.00;97115.47;5021702;28;20040;-42
2023/04/16 01:14:07;;;;;;;34.10;19.77;;;6.70;99.90;;;6.06;100.00;97130.16;5021438;28;20037;-42
2023/04/16 01:16:33;;;;;;;32.85;19.55;;;6.70;99.90;;;6.04;100.00;97132.81;5026483;28;20512;-42
2023/04/16 01:18:58;;;;;;;30.17;19.23;;;6.70;99.90;;;6.04;100.00;97135.44;5026362;28;20037;-42
2023/04/16 01:21:25;;;;;;;31.38;18.27;;;6.70;99.90;;;6.04;100.00;97132.81;5030285;28;20476;-43
2023/04/16 01:23:51;;;;;;;29.38;18.95;;;6.70;99.90;;;6.07;100.00;97134.53;5031321;28;20074;-41
2023/04/16 01:26:16;;;;;;;85.78;21.10;;;6.70;99.90;;;6.07;100.00;97140.59;5033219;28;20029;-40
2023/04/16 01:28:42;;;;;;;27.67;18.52;;;6.70;99.90;;;6.07;100.00;97139.75;5033191;28;20733;-42
2023/04/16 01:31:08;;;;;;;32.75;18.90;;;6.70;99.90;;;6.08;100.00;97136.22;5035160;28;20123;-40
2023/04/16 01:33:33;;;;;;;39.45;17.70;;;6.70;99.90;;;6.08;100.00;97136.22;5032057;28;20035;-40
2023/04/16 01:35:59;;;;;;;142.35;22.50;;;6.70;99.90;;;6.08;100.00;97141.47;5029856;28;20036;-41
2023/04/16 01:38:25;;;;;;;27.98;17.70;;;6.70;99.90;;;6.11;100.00;97149.25;5034208;28;20037;-40
2023/04/16 01:40:56;;;;;;;31.35;18.35;;;6.70;99.90;;;6.08;100.00;97141.47;5032852;28;20037;-41
2023/04/16 01:43:22;;;;;;;32.17;17.73;;;6.70;99.90;;;6.06;100.00;97145.88;5030444;28;20029;-41
2023/04/16 01:45:47;;;;;;;29.60;18.02;;;6.70;99.90;;;6.08;100.00;97144.97;5029804;28;20064;-41
2023/04/16 01:48:13;;;;;;;27.50;17.05;;;6.70;99.90;;;6.08;100.00;97147.56;5026579;28;20094;-41
2023/04/16 01:50:39;;;;;;;23.52;16.63;;;6.70;99.90;;;6.08;100.00;97139.72;5024761;28;20742;-41
2023/04/16 01:53:05;;;;;;;78.85;19.83;;;6.70;99.90;;;6.08;100.00;97149.31;5025837;28;20052;-42
2023/04/16 01:55:32;;;;;;;44.63;17.25;;;6.80;99.90;;;6.12;100.00;97143.13;5031158;28;20097;-42
2023/04/16 01:57:58;;;;;;;23.30;15.52;;;6.70;99.90;;;6.09;100.00;97148.44;5023082;28;20040;-42
2023/04/16 02:00:24;;;;;;;22.02;15.35;;;6.70;99.90;;;6.09;100.00;97146.66;5027805;28;20412;-41
2023/04/16 02:02:49;;;;;;;25.55;15.57;;;6.80;99.90;;;6.03;100.00;97131.13;5031009;28;20075;-41
2023/04/16 02:05:15;;;;;;;42.63;16.23;;;6.80;99.90;;;6.00;100.00;97132.94;5021422;28;20021;-43
2023/04/16 02:07:41;;;;;;;20.15;14.00;;;6.70;99.90;;;6.04;100.00;97145.06;5030387;28;20033;-41
2023/04/16 02:10:09;;;;;;;24.42;15.60;;;6.70;99.90;;;6.05;100.00;97144.16;5030250;28;20036;-41
2023/04/16 02:12:34;;;;;;;26.23;15.50;;;6.70;99.90;;;6.06;100.00;97143.25;5032155;28;20029;-43
2023/04/16 02:15:00;;;;;;;25.70;15.40;;;6.70;99.90;;;5.90;100.00;97114.81;5028233;28;20029;-41
2023/04/16 02:17:26;;;;;;;21.60;14.45;;;6.80;99.90;;;6.11;100.00;97151.88;5029266;28;20048;-41
2023/04/16 02:19:51;;;;;;;56.92;18.40;;;6.70;99.90;;;6.09;100.00;97151.06;5025307;28;20088;-42
2023/04/16 02:22:17;;;;;;;24.73;15.90;;;6.70;99.90;;;6.07;100.00;97150.22;5031682;28;20036;-42
2023/04/16 02:24:43;;;;;;;26.85;16.52;;;6.80;99.90;;;6.02;100.00;97141.63;5028592;28;20666;-41
2023/04/16 02:27:08;;;;;;;23.08;15.95;;;6.70;99.90;;;6.06;100.00;97151.09;5029027;28;20195;-42
2023/04/16 02:29:34;;;;;;;26.48;15.50;;;6.70;99.90;;;6.06;100.00;97151.09;5028578;28;20052;-42
2023/04/16 02:32:00;;;;;;;45.28;17.35;;;6.70;99.90;;;6.08;100.00;97151.94;5026899;28;20033;-42
2023/04/16 02:34:26;;;;;;;73.80;18.40;;;6.70;99.90;;;6.07;100.00;97158.94;5025474;28;20041;-42
2023/04/16 02:36:53;;;;;;;28.25;17.45;;;6.70;99.90;;;6.04;100.00;97152.91;5025307;28;20025;-41
2023/04/16 02:39:18;;;;;;;31.48;18.17;;;6.70;99.90;;;6.07;100.00;97158.09;5030229;28;20122;-41
2023/04/16 02:41:44;;;;;;;30.38;16.98;;;6.70;99.90;;;6.00;100.00;97139.03;5028277;28;20021;-41
2023/04/16 02:44:10;;;;;;;27.83;16.48;;;6.70;99.90;;;6.08;100.00;97163.28;5025938;28;20049;-41
2023/04/16 02:46:36;;;;;;;25.02;15.80;;;6.70;99.90;;;6.04;100.00;97152.91;5021126;28;20378;-41
2023/04/16 02:49:01;;;;;;;34.85;17.88;;;6.70;99.90;;;6.08;100.00;97152.81;5027167;28;20110;-42
2023/04/16 02:51:27;;;;;;;24.00;16.92;;;6.80;99.90;;;6.08;100.00;97165.03;5020501;28;20048;-42
2023/04/16 02:53:53;;;;;;;28.20;16.40;;;6.70;99.90;;;6.08;100.00;97165.03;5051517;22;20566;-50
2023/04/16 02:56:19;;;;;;;90.88;19.65;;;6.70;99.90;;;6.07;100.00;97160.69;5051428;28;20113;-50
2023/04/16 02:58:44;;;;;;;43.15;18.08;;;6.70;99.90;;;6.07;100.00;97164.16;5049498;28;20400;-48
2023/04/16 03:01:10;;;;;;;54.70;17.40;;;6.80;99.90;;;6.06;100.00;97172.91;5044971;28;20041;-50
2023/04/16 03:03:36;;;;;;;36.40;17.70;;;6.70;99.90;;;6.06;100.00;97166.81;5043914;28;20030;-51
2023/04/16 03:06:02;;;;;;;92.20;21.05;;;6.70;99.90;;;6.07;100.00;97158.94;5027019;28;20037;-50
2023/04/16 03:08:27;;;;;;;28.80;15.75;;;6.70;99.90;;;6.04;100.00;97161.63;5027352;28;20037;-51
2023/04/16 03:10:53;;;;;;;32.58;16.15;;;6.70;99.90;;;6.03;100.00;97166.88;5025587;28;20048;-51
2023/04/16 03:13:19;;;;;;;32.08;16.98;;;6.70;99.90;;;6.01;100.00;97158.22;5027612;28;20500;-50
2023/04/16 03:15:48;;;;;;;33.25;17.95;;;6.70;99.90;;;6.00;100.00;97164.34;5027486;28;20099;-51
2023/04/16 03:18:15;;;;;;;93.88;19.85;;;6.70;99.90;;;5.98;100.00;97159.16;5027530;28;20029;-50
2023/04/16 03:20:40;;;;;;;38.55;16.85;;;6.70;99.90;;;6.00;100.00;97162.59;5031434;28;20045;-50
2023/04/16 03:23:06;;;;;;;35.83;18.38;;;6.70;99.90;;;6.01;100.00;97164.31;5024352;28;20056;-50
2023/04/16 03:25:32;;;;;;;37.33;18.30;;;6.70;99.90;;;6.07;100.00;97171.19;5021573;28;20028;-51
2023/04/16 03:27:57;;;;;;;36.10;19.80;;;6.70;99.90;;;6.01;100.00;97166.06;5026064;28;20051;-50
2023/04/16 03:30:23;;;;;;;35.95;19.63;;;6.70;99.90;;;5.98;100.00;97172.22;5029174;28;20079;-48
2023/04/16 03:32:49;;;;;;;168.70;24.85;;;6.70;99.90;;;6.00;100.00;97172.22;5030796;28;20056;-50
2023/04/16 03:35:14;;;;;;;36.40;19.92;;;6.70;99.90;;;6.00;100.00;97166.97;5020256;28;20116;-51
2023/04/16 03:37:40;;;;;;;34.60;18.75;;;6.70;99.90;;;6.03;100.00;97178.22;5029057;28;20413;-51
2023/04/16 03:40:07;;;;;;;81.68;21.00;;;6.70;99.90;;;6.01;100.00;97177.41;5026165;28;20033;-49
2023/04/16 03:42:32;;;;;;;178.05;25.33;;;6.70;99.90;;;5.99;100.00;97178.31;5026994;28;20028;-50
2023/04/16 03:44:59;;;;;;;34.80;19.52;;;6.60;99.90;;;5.99;100.00;97180.94;5026402;28;20468;-50
2023/04/16 03:47:25;;;;;;;44.10;19.70;;;6.60;99.90;;;5.93;100.00;97181.91;5031361;28;20302;-51
2023/04/16 03:49:50;;;;;;;37.75;19.25;;;6.60;99.90;;;5.95;100.00;97182.72;5024686;28;20048;-51
2023/04/16 03:52:16;;;;;;;60.17;19.60;;;6.70;99.90;;;5.97;100.00;97183.59;5028926;28;20035;-50
2023/04/16 03:54:42;;;;;;;39.50;20.10;;;6.70;99.90;;;5.95;100.00;97184.50;5024963;28;20573;-51
2023/04/16 03:57:07;;;;;;;45.47;18.42;;;6.60;99.90;;;5.95;100.00;97187.97;5022962;28;20033;-49
2023/04/16 03:59:33;;;;;;;166.90;24.70;;;6.60;99.90;;;5.95;100.00;97192.34;5030844;28;20110;-50
2023/04/16 04:01:59;;;;;;;41.08;20.10;;;6.60;99.90;;;5.97;100.00;97180.13;5020338;28;20029;-51
2023/04/16 04:04:24;;;;;;;41.30;20.23;;;6.60;99.90;;;5.96;100.00;97188.84;5027782;28;20049;-51
2023/04/16 04:06:50;;;;;;;41.15;19.65;;;6.70;99.90;;;5.94;100.00;97186.25;5026977;28;20057;-50
2023/04/16 04:09:16;;;;;;;39.28;19.42;;;6.60;99.90;;;5.97;100.00;97188.81;5033099;28;20492;-50
2023/04/16 04:11:42;;;;;;;61.47;21.60;;;6.60;99.90;;;5.95;100.00;97189.72;5032178;28;20124;-51
2023/04/16 04:14:08;;;;;;;37.63;19.55;;;6.60;99.90;;;5.97;100.00;97194.06;5029892;28;20037;-50
2023/04/16 04:16:34;;;;;;;51.78;19.33;;;6.70;99.90;;;5.95;100.00;97202.81;5031674;28;20437;-50
2023/04/16 04:19:00;;;;;;;36.67;18.90;;;6.60;99.90;;;5.89;100.00;97191.59;5033608;28;20116;-50
2023/04/16 04:21:27;;;;;;;36.28;18.45;;;6.60;99.90;;;5.93;100.00;97197.63;5031610;28;20029;-50
2023/04/16 04:23:53;;;;;;;39.90;17.52;;;6.60;99.90;;;5.95;100.00;97200.19;5028253;28;20103;-49
2023/04/16 04:26:19;;;;;;;66.75;19.63;;;6.60;99.90;;;5.97;100.00;97203.69;5029188;28;20511;-51
2023/04/16 04:28:45;;;;;;;36.42;17.25;;;6.60;99.90;;;5.98;100.00;97200.19;5032595;28;20041;-47
2023/04/16 04:31:12;;;;;;;37.10;17.67;;;6.60;99.90;;;5.96;100.00;97209.78;5031242;28;20033;-50
2023/04/16 04:33:37;;;;;;;32.17;17.33;;;6.60;99.90;;;5.95;100.00;97208.91;5032230;28;20127;-52
2023/04/16 04:36:03;;;;;;;39.25;16.20;;;6.60;99.90;;;5.94;100.00;97212.44;5033048;28;20289;-47
2023/04/16 04:38:30;;;;;;;143.38;19.65;;;6.60;99.90;;;5.96;100.00;97215.03;5028765;28;20043;-47
2023/04/16 04:40:55;;;;;;;38.13;16.42;;;6.60;99.90;;;5.96;100.00;97207.19;5030843;28;20484;-48
2023/04/16 04:43:21;;;;;;;108.00;19.58;;;6.60;99.90;;;5.93;100.00;97219.41;5024801;28;20030;-46
2023/04/16 04:45:48;;;;;;;97.95;17.73;;;6.60;99.90;;;5.92;100.00;97222.06;5021813;28;20052;-48
2023/04/16 04:48:14;;;;;;;36.42;16.75;;;6.60;99.90;;;5.91;100.00;97222.97;5026550;28;20112;-48
2023/04/16 04:50:41;;;;;;;52.20;16.35;;;6.60;99.90;;;5.90;100.00;97216.88;5029942;28;20032;-47
2023/04/16 04:53:10;;;;;;;34.60;16.65;;;6.60;99.90;;;5.92;100.00;97235.13;5030020;28;20654;-49
2023/04/16 04:55:39;;;;;;;37.60;17.42;;;6.60;99.90;;;5.90;100.00;97226.47;5034904;28;20775;-48
2023/04/16 04:58:06;;;;;;;35.83;17.08;;;6.60;99.90;;;5.91;100.00;97231.66;5026770;28;20048;-48
2023/04/16 05:00:33;;;;;;;35.70;16.63;;;6.60;99.90;;;5.91;100.00;97229.06;5033339;28;20500;-49
2023/04/16 05:03:04;;;;;;;33.65;17.73;;;6.60;99.90;;;5.93;100.00;97235.13;5031542;28;20029;-48
2023/04/16 05:05:30;;;;;;;29.23;15.73;;;6.60;99.90;;;5.93;100.00;97229.88;5027892;28;20074;-47
2023/04/16 05:07:56;;;;;;;62.45;18.52;;;6.60;99.90;;;5.93;100.00;97235.13;5031585;28;20041;-48
2023/04/16 05:10:22;;;;;;;50.03;17.25;;;6.60;99.90;;;5.92;100.00;97243.88;5027650;28;20029;-46
2023/04/16 05:12:47;;;;;;;32.45;17.80;;;6.60;99.90;;;5.90;100.00;97240.44;5030521;28;20033;-48
2023/04/16 05:15:14;;;;;;;34.17;16.92;;;6.60;99.90;;;5.94;100.00;97246.47;5026509;28;20041;-50
2023/04/16 05:17:40;;;;;;;33.17;16.52;;;6.60;99.90;;;5.97;100.00;97253.41;5031555;28;20037;-47
2023/04/16 05:20:07;;;;;;;34.30;17.27;;;6.60;99.90;;;5.99;100.00;97256.84;5031299;28;20037;-49
2023/04/16 05:22:33;;;;;;;35.47;16.90;;;6.70;99.90;;;5.91;100.00;97254.38;5033748;28;20663;-48
2023/04/16 05:24:59;;;;;;;36.33;18.13;;;6.60;99.90;;;5.83;100.00;97245.81;5031091;28;20264;-46
2023/04/16 05:27:24;;;;;;;52.55;17.65;;;6.60;99.90;;;5.96;100.00;97268.25;5026044;28;20386;-48
2023/04/16 05:29:50;;;;;;;50.00;21.83;;;6.60;99.90;;;5.95;100.00;97269.13;5029761;28;20033;-51
2023/04/16 05:32:16;;;;;;;202.00;26.38;;;6.60;99.90;;;5.95;100.00;97268.25;5030705;28;20084;-48
2023/04/16 05:34:41;;;;;;;183.38;26.60;;;6.60;99.90;;;5.93;100.00;97265.66;5030708;28;20416;-47
2023/04/16 05:37:07;;;;;;;48.50;23.60;;;6.60;99.90;;;5.97;100.00;97277.81;5029239;28;20196;-49
2023/04/16 05:39:33;;;;;;;59.78;26.45;;;6.60;99.90;;;5.95;100.00;97274.34;5032499;28;20060;-48
2023/04/16 05:41:58;;;;;;;54.05;26.45;;;6.60;99.90;;;5.95;100.00;97274.34;5033595;28;20291;-50
2023/04/16 05:44:24;;;;;;;57.63;24.85;;;6.60;99.90;;;5.94;100.00;97275.25;5029473;28;20025;-49
2023/04/16 05:46:50;;;;;;;65.00;27.83;;;6.60;99.90;;;5.95;100.00;97284.81;5032227;28;20277;-48
2023/04/16 05:49:17;;;;;;;96.60;27.88;;;6.60;99.90;;;5.95;100.00;97290.06;5029908;28;20498;-50
2023/04/16 05:51:43;;;;;;;90.63;29.35;;;6.60;99.90;;;6.01;100.00;97294.34;5028222;28;20029;-50
2023/04/16 05:54:09;;;;;;;68.07;28.75;;;6.60;99.90;;;5.96;100.00;97285.69;5027597;28;20492;-48
2023/04/16 05:56:35;;;;;;;64.47;29.55;;;6.60;99.90;;;5.95;100.00;97294.44;5032258;28;20033;-49
2023/04/16 05:59:00;;;;;;;137.60;32.83;;;6.60;99.90;;;5.95;100.00;97294.44;5030523;28;20295;-47
2023/04/16 06:01:26;;;;;;;94.15;30.42;;;6.70;99.90;;;5.92;100.00;97291.00;5028241;28;20032;-48
2023/04/16 06:03:52;;;;;;;73.45;30.90;;;6.60;99.90;;;6.01;100.00;97294.34;5026284;28;20039;-49
2023/04/16 06:06:17;;;;;;;66.07;30.33;;;6.70;99.90;;;6.00;100.00;97298.72;5030514;28;20036;-50
2023/04/16 06:08:43;;;;;;;70.85;31.48;;;6.70;99.90;;;5.94;100.00;97298.81;5032346;28;20405;-50
2023/04/16 06:11:09;;;;;;;99.72;30.23;;;6.70;99.90;;;5.99;100.00;97301.34;5032164;28;20028;-51
2023/04/16 06:13:35;;;;;;;174.98;33.35;;;6.70;99.90;;;6.02;100.00;97296.06;5028616;28;20149;-49
2023/04/16 06:16:01;;;;;;;73.75;30.98;;;6.60;99.90;;;6.01;100.00;97304.81;5029450;28;20044;-51
2023/04/16 06:18:26;;;;;;;72.63;31.20;;;6.70;99.90;;;6.00;100.00;97301.34;5029338;28;20044;-52
2023/04/16 06:20:53;;;;;;;143.82;33.47;;;6.70;99.90;;;6.02;100.00;97304.78;5028371;28;20090;-50
2023/04/16 06:23:19;;;;;;;72.07;31.85;;;6.70;99.90;;;6.00;100.00;97308.34;5026212;28;20627;-51
2023/04/16 06:25:45;;;;;;;65.20;29.92;;;6.70;99.90;;;5.99;100.00;97310.06;5030559;28;20595;-52
2023/04/16 06:28:10;;;;;;;140.60;33.58;;;6.70;99.90;;;5.99;100.00;97304.81;5028318;28;20347;-50
2023/04/16 06:30:36;;;;;;;94.60;31.45;;;6.70;99.90;;;6.00;100.00;97309.19;5033971;28;20385;-53
2023/04/16 06:33:02;;;;;;;68.22;28.52;;;6.70;99.90;;;6.05;100.00;97306.50;5031116;28;20060;-50
2023/04/16 06:35:27;;;;;;;132.70;31.63;;;6.70;99.90;;;6.03;100.00;97314.38;5031296;28;20445;-50
2023/04/16 06:37:53;;;;;;;70.70;31.90;;;6.70;99.90;;;6.03;100.00;97314.38;5028447;28;20028;-53
2023/04/16 06:40:19;;;;;;;71.15;31.55;;;6.70;99.90;;;5.99;100.00;97312.69;5025694;28;21014;-52
2023/04/16 06:42:45;;;;;;;97.93;33.85;;;6.70;99.90;;;6.04;100.00;97317.84;5029380;28;20032;-52
2023/04/16 06:45:11;;;;;;;75.22;32.15;;;6.70;99.90;;;6.04;100.00;97320.47;5024037;28;20045;-51
2023/04/16 06:47:37;;;;;;;73.95;32.70;;;6.70;99.90;;;6.00;100.00;97311.81;5029104;28;20060;-50
2023/04/16 06:50:03;;;;;;;67.75;29.92;;;6.70;99.90;;;6.10;100.00;97325.56;5031865;28;20040;-51
2023/04/16 06:52:28;;;;;;;68.45;31.33;;;6.70;99.90;;;6.11;100.00;97324.69;5027948;28;20553;-52
2023/04/16 06:54:55;;;;;;;88.65;33.38;;;6.80;99.90;;;6.14;100.00;97321.13;5028877;28;20036;-52
2023/04/16 06:57:20;;;;;;;74.32;31.92;;;6.80;99.90;;;6.15;100.00;97321.09;5029743;28;20037;-48
2023/04/16 06:59:46;;;;;;;73.35;30.67;;;6.80;99.90;;;6.16;100.00;97319.34;5029663;28;20032;-52
2023/04/16 07:02:12;;;;;;;68.15;30.05;;;6.80;99.90;;;6.14;100.00;97326.34;5031890;28;20037;-50
2023/04/16 07:04:37;;;;;;;79.45;31.15;;;6.80;99.90;;;6.16;100.00;97332.44;5011491;28;20060;-53
2023/04/16 07:07:03;;;;;;;71.85;31.52;;;6.80;99.90;;;6.16;100.00;97332.44;5035712;28;20033;-49
2023/04/16 07:09:29;;;;;;;68.13;31.05;;;6.80;99.90;;;6.16;100.00;97333.31;5034477;28;20072;-52
2023/04/16 07:11:55;;;;;;;73.80;30.83;;;6.80;99.90;;;6.17;100.00;97337.63;5033953;28;20500;-51
2023/04/16 07:14:20;;;;;;;64.72;30.98;;;6.90;99.90;;;6.20;100.00;97329.72;5033151;28;20064;-51
2023/04/16 07:16:46;;;;;;;71.25;31.25;;;6.90;99.90;;;6.28;100.00;97329.56;5035295;28;20724;-48
2023/04/16 07:19:12;;;;;;;68.35;30.95;;;6.90;99.90;;;6.29;100.00;97333.91;5036306;28;20524;-51
2023/04/16 07:21:38;;;;;;;85.68;31.17;;;7.00;99.90;;;6.30;100.00;97327.78;5033655;28;20033;-49
2023/04/16 07:24:04;;;;;;;65.20;30.40;;;7.00;99.90;;;6.39;100.00;97337.19;5030202;28;20621;-53
2023/04/16 07:26:29;;;;;;;81.78;31.95;;;7.10;99.90;;;6.41;100.00;97343.28;5031706;28;20036;-53
2023/04/16 07:28:55;;;;;;;63.97;31.02;;;7.10;99.90;;;6.48;100.00;97339.63;5029137;28;20056;-52
2023/04/16 07:31:21;;;;;;;68.13;31.13;;;7.20;99.90;;;6.53;100.00;97348.22;5028606;28;20036;-51
2023/04/16 07:33:47;;;;;;;65.55;30.02;;;7.20;99.90;;;6.57;100.00;97343.78;5023674;28;20405;-52
2023/04/16 07:36:12;;;;;;;57.72;29.20;;;7.30;99.90;;;6.52;100.00;97348.28;5037276;28;20083;-52
2023/04/16 07:38:38;;;;;;;58.92;27.60;;;7.20;99.90;;;6.49;100.00;97351.81;5032299;28;20049;-51
2023/04/16 07:41:04;;;;;;;102.28;31.00;;;7.20;99.90;;;6.51;100.00;97352.66;5038116;28;20056;-52
2023/04/16 07:43:30;;;;;;;56.05;26.58;;;7.20;99.90;;;6.53;100.00;97361.31;5035446;28;20060;-51
2023/04/16 07:45:55;;;;;;;52.63;26.92;;;7.20;99.90;;;6.51;100.00;97352.66;5035583;28;20435;-52
2023/04/16 07:48:21;;;;;;;52.45;26.60;;;7.20;99.90;;;6.55;100.00;97356.94;5036313;28;20671;-52
2023/04/16 07:50:47;;;;;;;55.13;27.20;;;7.30;99.90;;;6.58;100.00;97354.22;5035460;28;20975;-50
2023/04/16 07:53:12;;;;;;;47.60;24.95;;;7.30;99.90;;;6.55;100.00;97356.06;5036137;28;20343;-52
2023/04/16 07:55:38;;;;;;;46.67;23.67;;;7.30;99.90;;;6.54;100.00;97364.84;5037211;28;20345;-50
2023/04/16 07:58:06;;;;;;;55.35;25.77;;;7.20;99.90;;;6.56;100.00;97369.13;5037598;28;20040;-52
2023/04/16 08:00:31;;;;;;;48.42;25.83;;;7.20;99.90;;;6.66;100.00;97367.19;5030495;28;20029;-51
2023/04/16 08:02:57;;;;;;;49.33;26.30;;;7.30;99.90;;;6.71;100.00;97370.53;5031997;28;20082;-48
2023/04/16 08:05:23;;;;;;;51.05;26.70;;;7.40;99.90;;;6.81;100.00;97374.69;5036167;28;20033;-50
2023/04/16 08:07:49;;;;;;;50.70;26.63;;;7.50;99.90;;;6.85;100.00;97370.25;5035312;28;20842;-50
2023/04/16 08:10:15;;;;;;;44.25;24.48;;;7.50;99.90;;;6.84;100.00;97376.41;5037294;28;20037;-50
2023/04/16 08:12:40;;;;;;;43.50;23.80;;;7.60;99.90;;;6.79;100.00;97383.50;5031337;28;20146;-49
2023/04/16 08:15:06;;;;;;;37.67;23.27;;;7.50;99.90;;;6.77;100.00;97380.06;5030783;28;20028;-51
2023/04/16 08:17:33;;;;;;;40.90;22.25;;;7.50;99.90;;;6.69;100.00;97382.81;5013497;28;20362;-51
2023/04/16 08:19:59;;;;;;;40.70;22.15;;;7.50;99.90;;;6.67;100.00;97392.50;5034143;28;20136;-52
2023/04/16 08:22:25;;;;;;;38.17;20.67;;;7.40;99.90;;;6.64;100.00;97390.81;5036013;28;20044;-52
2023/04/16 08:24:51;;;;;;;81.32;24.35;;;7.40;99.90;;;6.65;100.00;97392.50;5031819;28;20072;-49
2023/04/16 08:27:17;;;;;;;40.65;22.40;;;7.40;99.90;;;6.65;100.00;97396.91;5036423;28;20028;-52
2023/04/16 08:29:43;;;;;;;39.70;22.02;;;7.40;99.90;;;6.66;100.00;97402.13;5034651;28;20086;-52
2023/04/16 08:32:09;;;;;;;39.08;22.30;;;7.40;99.90;;;6.67;100.00;97401.19;5032540;28;20068;-51
2023/04/16 08:34:35;;;;;;;43.92;22.40;;;7.40;99.90;;;6.74;100.00;97398.47;5030881;28;20021;-49
2023/04/16 08:37:01;;;;;;;39.58;22.45;;;7.50;99.90;;;6.77;100.00;97406.28;5032944;28;20025;-52
2023/04/16 08:39:27;;;;;;;43.05;22.25;;;7.50;99.90;;;6.79;100.00;97412.34;5028002;28;20037;-52
2023/04/16 08:41:54;;;;;;;36.70;21.35;;;7.50;99.90;;;6.78;100.00;97421.09;5027902;28;20041;-49
2023/04/16 08:44:31;;;;;;;40.83;23.05;;;7.50;99.90;;;6.81;100.00;97413.16;5029846;28;20031;-52
2023/04/16 08:46:57;;;;;;;36.45;21.48;;;7.50;99.90;;;6.78;100.00;97415.84;5027383;28;20025;-52
2023/04/16 08:49:25;;;;;;;38.10;20.65;;;7.50;99.90;;;6.79;100.00;97421.06;5025293;28;20211;-52
2023/04/16 08:51:53;;;;;;;34.70;21.55;;;7.50;99.90;;;6.83;100.00;97427.09;5033728;28;20056;-52
2023/04/16 08:54:43;;;;;;;37.45;22.23;;;7.50;99.90;;;6.86;100.00;97424.41;5049320;22;20469;-40
2023/04/16 08:57:11;;;;;;;37.75;22.35;;;7.60;99.90;;;6.87;100.00;97419.16;5043868;28;20491;-40
2023/04/16 08:59:38;;;;;;;35.70;21.15;;;7.60;99.90;;;6.83;100.00;97425.31;5040578;28;20072;-40
2023/04/16 09:02:05;;;;;;;32.47;20.77;;;7.60;99.90;;;6.86;100.00;97430.50;5023158;28;20033;-40
2023/04/16 09:04:31;;;;;;;34.22;21.15;;;7.60;99.90;;;6.88;100.00;97431.34;5040208;28;20402;-40
2023/04/16 09:06:58;;;;;;;35.08;21.05;;;7.60;99.90;;;6.96;100.00;97425.91;5030321;28;20120;-40
2023/04/16 09:09:26;;;;;;;31.17;19.33;;;7.70;99.90;;;7.03;100.00;97435.41;5043614;28;20032;-41
2023/04/16 09:11:52;;;;;;;32.67;19.13;;;7.80;99.90;;;7.14;100.00;97432.53;5040783;28;20028;-41
2023/04/16 09:14:18;;;;;;;32.00;20.00;;;7.90;99.90;;;7.24;100.00;97438.44;5044673;28;20028;-41
2023/04/16 09:16:46;;;;;;;35.03;20.27;;;8.00;99.90;;;7.26;100.00;97437.47;5039567;28;20037;-42
2023/04/16 09:19:13;;;;;;;35.90;19.95;;;8.00;99.90;;;7.41;100.00;97438.03;5047355;28;20527;-40
2023/04/16 09:21:41;;;;;;;34.65;19.58;;;8.10;99.90;;;7.51;100.00;97438.69;5042872;28;20243;-40
2023/04/16 09:24:08;;;;;;;34.47;18.25;;;8.30;99.90;;;7.53;100.00;97444.75;5035411;28;20108;-40
2023/04/16 09:26:34;;;;;;;34.58;20.00;;;8.30;99.90;;;7.62;100.00;97441.91;5043020;28;20025;-40
2023/04/16 09:29:00;;;;;;;30.70;17.83;;;8.30;99.90;;;7.54;100.00;97441.25;5038892;28;20035;-40
2023/04/16 09:31:26;;;;;;;30.40;17.75;;;8.40;99.90;;;7.63;100.00;97449.75;5038894;28;20040;-40
2023/04/16 09:34:07;;;;;;;29.20;18.27;;;8.40;99.90;;;7.60;100.00;97451.56;5031654;28;20564;-40
2023/04/16 09:36:35;;;;;;;30.75;17.95;;;8.40;99.90;;;7.63;100.00;97457.63;5041117;28;20063;-41
2023/04/16 09:39:01;;;;;;;30.02;17.80;;;8.40;99.90;;;7.76;100.00;97452.06;5027696;28;20036;-41
2023/04/16 09:41:30;;;;;;;32.88;18.08;;;8.50;99.90;;;7.81;100.00;97443.16;5043213;28;20436;-40
2023/04/16 09:43:57;;;;;;;29.92;17.02;;;8.60;99.90;;;7.87;100.00;97454.44;5040096;28;20026;-40
2023/04/16 09:46:43;;;;;;;26.83;16.25;;;8.60;99.90;;;7.83;100.00;97457.13;5039032;28;20036;-40
2023/04/16 09:49:13;;;;;;;30.85;17.77;;;8.60;99.90;;;7.79;100.00;97460.72;5044508;28;20068;-40
2023/04/16 09:51:47;;;;;;;30.40;17.10;;;8.60;99.90;;;7.78;100.00;97459.00;5038121;28;21584;-40
2023/04/16 09:54:13;;;;;;;29.65;16.63;;;8.60;99.90;;;7.45;100.00;97419.56;5033242;28;20029;-40
2023/04/16 09:56:44;;;;;;;27.67;16.42;;;8.50;99.90;;;7.57;100.00;97467.38;5043411;28;20040;-40
2023/04/16 09:59:21;;;;;;;26.23;15.77;;;8.40;99.90;;;7.54;100.00;97470.09;5046795;28;20516;-40
2023/04/16 10:01:48;;;;;;;27.83;16.98;;;8.30;99.90;;;7.50;100.00;97465.81;5041817;28;20083;-41
2023/04/16 10:04:15;;;;;;;30.38;17.10;;;8.20;99.90;;;7.44;100.00;97474.69;5042513;28;20412;-40
2023/04/16 10:06:41;;;;;;;29.13;17.63;;;8.10;99.90;;;7.44;100.00;97472.06;5045574;28;20052;-40
2023/04/16 10:09:08;;;;;;;31.63;16.95;;;8.10;99.90;;;7.44;100.00;97472.94;5044824;28;20203;-41